createdAt,value
2019-01-18T00:01:34.633Z,91.40
2019-01-18T00:04:05.095Z,91.20
2019-01-18T00:06:37.128Z,91.60
2019-01-18T00:09:10.126Z,92.10
2019-01-18T00:11:40.681Z,91.20
2019-01-18T00:14:10.992Z,92.00
2019-01-18T00:16:46.024Z,91.90
2019-01-18T00:19:22.081Z,91.60
2019-01-18T00:21:52.681Z,91.10
2019-01-18T00:24:23.398Z,91.70
2019-01-18T00:26:53.959Z,92.10
2019-01-18T00:29:29.583Z,92.10
2019-01-18T00:31:58.799Z,91.90
2019-01-18T00:34:32.087Z,91.90
2019-01-18T00:37:04.324Z,91.20
2019-01-18T00:39:39.788Z,91.70
2019-01-18T00:42:09.923Z,91.80
2019-01-18T00:44:40.122Z,91.70
2019-01-18T00:47:10.642Z,91.30
2019-01-18T00:49:43.981Z,91.60
2019-01-18T00:52:14.729Z,91.20
2019-01-18T00:54:44.947Z,90.80
2019-01-18T00:57:17.201Z,90.90
2019-01-18T00:59:47.695Z,91.00
2019-01-18T01:02:18.181Z,91.20
2019-01-18T01:04:49.943Z,91.40
2019-01-18T01:07:20.289Z,91.00
2019-01-18T01:09:53.444Z,91.20
2019-01-18T01:12:23.935Z,90.70
2019-01-18T01:14:53.942Z,90.70
2019-01-18T01:17:24.133Z,90.50
2019-01-18T01:19:54.840Z,91.40
2019-01-18T01:22:25.308Z,90.80
2019-01-18T01:24:55.729Z,91.00
2019-01-18T01:27:27.409Z,90.50
2019-01-18T01:29:57.604Z,90.90
2019-01-18T01:32:27.994Z,91.00
2019-01-18T01:34:57.873Z,91.20
2019-01-18T01:37:28.240Z,91.10
2019-01-18T01:39:58.190Z,91.20
2019-01-18T01:42:28.297Z,91.40
2019-01-18T01:45:00.517Z,91.90
2019-01-18T01:47:30.651Z,91.70
2019-01-18T01:50:02.585Z,91.20
2019-01-18T01:52:32.342Z,91.30
2019-01-18T01:55:02.317Z,91.80
2019-01-18T01:57:32.315Z,91.40
2019-01-18T02:00:02.809Z,91.70
2019-01-18T02:02:32.944Z,91.90
2019-01-18T02:05:03.346Z,91.90
2019-01-18T02:07:33.655Z,91.70
2019-01-18T02:10:04.029Z,92.50
2019-01-18T02:12:34.313Z,93.00
2019-01-18T02:15:05.583Z,92.70
2019-01-18T02:17:35.780Z,92.80
2019-01-18T02:20:07.071Z,92.80
2019-01-18T02:22:37.565Z,92.40
2019-01-18T02:25:08.437Z,92.70
2019-01-18T02:27:40.231Z,92.50
2019-01-18T02:30:14.693Z,93.30
2019-01-18T02:32:45.141Z,92.90
2019-01-18T02:35:15.437Z,92.90
2019-01-18T02:37:46.510Z,92.90
2019-01-18T02:40:20.491Z,93.40
2019-01-18T02:42:50.411Z,93.40
2019-01-18T02:45:24.011Z,92.80
2019-01-18T02:47:54.272Z,92.40
2019-01-18T02:50:24.712Z,93.00
2019-01-18T02:52:55.000Z,92.70
2019-01-18T02:55:28.968Z,92.00
2019-01-18T02:58:00.648Z,93.20
2019-01-18T03:00:32.684Z,92.90
2019-01-18T03:03:03.326Z,92.80
2019-01-18T03:05:33.738Z,93.40
2019-01-18T03:08:04.618Z,93.10
2019-01-18T03:10:34.871Z,93.00
2019-01-18T03:13:11.068Z,93.60
2019-01-18T03:15:41.107Z,93.10
2019-01-18T03:18:11.534Z,93.20
2019-01-18T03:20:41.611Z,93.50
2019-01-18T03:23:11.716Z,93.40
2019-01-18T03:25:43.026Z,93.10
2019-01-18T03:28:13.163Z,93.40
2019-01-18T03:30:43.765Z,93.40
2019-01-18T03:33:14.100Z,93.30
2019-01-18T03:35:44.363Z,93.20
2019-01-18T03:38:14.806Z,93.40
2019-01-18T03:40:46.422Z,93.80
2019-01-18T03:43:26.789Z,92.90
2019-01-18T03:45:56.837Z,93.30
2019-01-18T03:48:28.391Z,93.80
2019-01-18T03:50:58.508Z,93.50
2019-01-18T03:53:29.952Z,93.30
2019-01-18T03:56:00.151Z,93.30
2019-01-18T03:58:30.431Z,93.50
2019-01-18T04:01:01.330Z,93.30
2019-01-18T04:03:31.889Z,93.30
2019-01-18T04:06:02.127Z,93.70
2019-01-18T04:08:32.114Z,93.10
2019-01-18T04:11:02.148Z,93.20
2019-01-18T04:13:32.594Z,93.50
2019-01-18T04:16:02.605Z,93.60
2019-01-18T04:18:32.541Z,93.40
2019-01-18T04:21:02.559Z,93.60
2019-01-18T04:23:32.701Z,93.20
2019-01-18T04:26:03.553Z,93.40
2019-01-18T04:28:33.735Z,93.30
2019-01-18T04:31:03.593Z,93.10
2019-01-18T04:33:33.709Z,93.80
2019-01-18T04:36:03.959Z,93.60
2019-01-18T04:38:39.608Z,93.70
2019-01-18T04:41:09.537Z,93.50
2019-01-18T04:43:39.442Z,93.60
2019-01-18T04:46:09.267Z,93.50
2019-01-18T04:48:39.212Z,93.80
2019-01-18T04:51:09.378Z,94.00
2019-01-18T04:53:39.202Z,94.20
2019-01-18T04:56:09.384Z,94.00
2019-01-18T04:58:39.971Z,94.00
2019-01-18T05:01:15.549Z,94.40
2019-01-18T05:03:47.411Z,94.20
2019-01-18T05:06:17.389Z,93.80
2019-01-18T05:08:48.882Z,93.50
2019-01-18T05:11:18.869Z,94.20
2019-01-18T05:13:51.230Z,93.90
2019-01-18T05:16:21.698Z,93.80
2019-01-18T05:18:52.966Z,94.00
2019-01-18T05:21:23.230Z,93.80
2019-01-18T05:23:57.597Z,94.10
2019-01-18T05:26:27.914Z,94.70
2019-01-18T05:29:01.344Z,94.10
2019-01-18T05:31:33.206Z,93.60
2019-01-18T05:34:03.320Z,94.20
2019-01-18T05:36:33.514Z,93.80
2019-01-18T05:39:05.917Z,93.90
2019-01-18T05:41:35.989Z,93.90
2019-01-18T05:44:05.826Z,93.70
2019-01-18T05:46:37.841Z,93.60
2019-01-18T05:49:07.936Z,93.90
2019-01-18T05:51:38.153Z,93.90
2019-01-18T05:54:08.165Z,93.70
2019-01-18T05:56:38.252Z,94.10
2019-01-18T05:59:10.235Z,94.00
2019-01-18T06:01:40.517Z,94.10
2019-01-18T06:04:10.614Z,94.00
2019-01-18T06:06:40.932Z,93.80
2019-01-18T06:09:11.738Z,94.00
2019-01-18T06:11:44.656Z,94.00
2019-01-18T06:14:14.682Z,94.00
2019-01-18T06:16:44.620Z,94.10
2019-01-18T06:19:18.428Z,94.00
2019-01-18T06:21:51.379Z,94.50
2019-01-18T06:24:24.187Z,94.10
2019-01-18T06:26:54.088Z,93.60
2019-01-18T06:29:24.504Z,94.20
2019-01-18T06:31:54.509Z,94.60
2019-01-18T06:34:28.727Z,94.20
2019-01-18T06:37:01.884Z,94.20
2019-01-18T06:39:38.223Z,93.80
2019-01-18T06:42:08.228Z,93.30
2019-01-18T06:44:39.863Z,94.40
2019-01-18T06:47:09.619Z,94.70
2019-01-18T06:49:39.374Z,94.50
2019-01-18T06:52:09.137Z,94.10
2019-01-18T06:54:41.986Z,93.90
2019-01-18T06:57:12.231Z,93.60
2019-01-18T06:59:45.640Z,94.00
2019-01-18T07:02:20.434Z,94.40
2019-01-18T07:04:50.501Z,94.00
2019-01-18T07:07:20.692Z,94.40
2019-01-18T07:09:52.153Z,94.10
2019-01-18T07:12:23.142Z,94.70
2019-01-18T07:14:52.837Z,93.80
2019-01-18T07:17:26.362Z,94.20
2019-01-18T07:20:12.639Z,94.60
2019-01-18T07:22:49.503Z,94.20
2019-01-18T07:25:26.742Z,94.30
2019-01-18T07:28:06.603Z,94.10
2019-01-18T07:30:43.703Z,93.80
2019-01-18T07:33:35.726Z,93.90
2019-01-18T07:36:04.309Z,93.90
2019-01-18T07:38:35.322Z,94.80
2019-01-18T07:41:05.474Z,94.00
2019-01-18T07:43:35.459Z,94.30
2019-01-18T07:46:05.564Z,94.60
2019-01-18T07:48:38.973Z,94.40
2019-01-18T07:51:11.346Z,94.30
2019-01-18T07:53:40.587Z,94.60
2019-01-18T07:56:10.631Z,94.30
2019-01-18T07:58:40.634Z,94.80
2019-01-18T08:01:10.567Z,94.30
2019-01-18T08:03:40.991Z,94.30
2019-01-18T08:06:11.083Z,94.10
2019-01-18T08:08:41.180Z,94.20
2019-01-18T08:11:11.001Z,93.90
2019-01-18T08:13:40.730Z,94.20
2019-01-18T08:16:11.097Z,94.50
2019-01-18T08:18:41.526Z,94.00
2019-01-18T08:21:13.035Z,94.10
2019-01-18T08:23:50.463Z,94.20
2019-01-18T08:26:21.003Z,93.70
2019-01-18T08:28:51.209Z,94.00
2019-01-18T08:31:28.932Z,93.80
2019-01-18T08:34:18.859Z,92.60
2019-01-18T08:37:34.383Z,92.00
2019-01-18T08:40:45.294Z,93.60
2019-01-18T08:43:30.429Z,88.40
2019-01-18T08:46:02.580Z,71.10
2019-01-18T08:52:17.574Z,44.50
2019-01-18T08:54:57.541Z,39.40
2019-01-18T08:57:36.217Z,36.10
2019-01-18T09:00:10.769Z,31.40
2019-01-18T09:02:44.128Z,28.90
2019-01-18T09:05:16.554Z,28.40
2019-01-18T09:07:49.179Z,28.40
2019-01-18T09:10:20.127Z,27.20
2019-01-18T09:12:50.345Z,25.70
2019-01-18T09:15:36.947Z,26.30
2019-01-18T09:18:06.886Z,27.00
2019-01-18T09:20:43.521Z,30.10
2019-01-18T09:23:13.934Z,35.10
2019-01-18T09:25:43.814Z,38.20
2019-01-18T09:28:13.613Z,42.10
2019-01-18T09:30:42.520Z,45.70
2019-01-18T09:33:15.595Z,48.70
2019-01-18T09:35:48.698Z,40.50
2019-01-18T09:38:18.821Z,32.80
2019-01-18T09:40:54.011Z,29.30
2019-01-18T09:43:24.088Z,26.60
2019-01-18T09:45:53.966Z,25.00
2019-01-18T09:48:24.341Z,25.00
2019-01-18T09:50:54.754Z,24.40
2019-01-18T09:53:25.081Z,23.70
2019-01-18T09:55:55.345Z,24.60
2019-01-18T09:58:25.277Z,22.30
2019-01-18T10:01:17.903Z,23.20
2019-01-18T10:03:47.981Z,22.50
2019-01-18T10:06:20.891Z,22.40
2019-01-18T10:08:59.314Z,21.90
2019-01-18T10:11:26.099Z,22.10
2019-01-18T10:13:56.438Z,21.60
2019-01-18T10:16:28.288Z,21.60
2019-01-18T10:19:01.335Z,20.70
2019-01-18T10:21:31.321Z,21.70
2019-01-18T10:24:01.247Z,21.00
2019-01-18T10:26:31.079Z,20.40
2019-01-18T10:29:01.177Z,20.40
2019-01-18T10:31:31.005Z,21.20
2019-01-18T10:34:01.584Z,22.00
2019-01-18T10:36:32.016Z,21.50
2019-01-18T10:39:02.124Z,22.60
2019-01-18T10:41:35.367Z,22.50
2019-01-18T10:44:07.262Z,22.20
2019-01-18T10:46:37.300Z,21.00
2019-01-18T10:49:12.648Z,20.20
2019-01-18T10:51:44.875Z,20.50
2019-01-18T10:54:14.929Z,20.70
2019-01-18T10:56:45.345Z,20.40
2019-01-18T10:59:22.312Z,21.10
2019-01-18T11:01:59.605Z,21.50
2019-01-18T11:04:27.312Z,20.60
2019-01-18T11:07:02.823Z,21.40
2019-01-18T11:09:38.821Z,22.70
2019-01-18T11:12:11.620Z,22.80
2019-01-18T11:14:44.604Z,22.50
2019-01-18T11:17:14.853Z,22.20
2019-01-18T11:19:47.487Z,22.10
2019-01-18T11:22:16.908Z,21.70
2019-01-18T11:24:48.872Z,22.80
2019-01-18T11:27:19.175Z,23.40
2019-01-18T11:29:49.366Z,24.30
2019-01-18T11:32:19.377Z,24.30
2019-01-18T11:34:49.253Z,24.10
2019-01-18T11:37:19.008Z,24.50
2019-01-18T11:39:48.919Z,27.00
2019-01-18T11:42:19.001Z,32.10
2019-01-18T11:44:50.957Z,37.50
2019-01-18T11:47:21.173Z,41.40
2019-01-18T11:49:51.554Z,44.00
2019-01-18T11:52:21.558Z,47.40
2019-01-18T11:54:51.604Z,49.40
2019-01-18T11:57:21.522Z,50.30
2019-01-18T11:59:50.617Z,50.00
2019-01-18T12:02:22.179Z,51.40
2019-01-18T12:04:55.076Z,53.30
2019-01-18T12:07:25.014Z,53.40
2019-01-18T12:09:57.995Z,54.20
2019-01-18T12:12:31.030Z,55.40
2019-01-18T12:15:03.793Z,55.70
2019-01-18T12:17:34.383Z,55.00
2019-01-18T12:20:07.485Z,55.60
2019-01-18T12:22:37.593Z,57.00
2019-01-18T12:25:11.034Z,56.60
2019-01-18T12:27:41.051Z,55.90
2019-01-18T12:30:14.994Z,57.80
2019-01-18T12:32:47.526Z,55.70
2019-01-18T12:35:17.516Z,57.50
2019-01-18T12:37:47.553Z,57.50
2019-01-18T12:40:16.835Z,56.80
2019-01-18T12:42:46.778Z,56.60
2019-01-18T12:45:18.605Z,56.10
2019-01-18T12:47:48.813Z,54.40
2019-01-18T12:50:22.104Z,53.60
2019-01-18T12:52:55.028Z,52.90
2019-01-18T12:55:27.287Z,52.30
2019-01-18T12:57:57.987Z,52.80
2019-01-18T13:00:31.637Z,52.80
2019-01-18T13:03:12.296Z,52.20
2019-01-18T13:05:59.332Z,52.00
2019-01-18T13:08:41.533Z,51.60
2019-01-18T13:11:18.748Z,52.20
2019-01-18T13:13:57.822Z,50.90
2019-01-18T13:16:54.532Z,51.10
2019-01-18T13:19:40.530Z,52.30
2019-01-18T13:22:16.630Z,52.50
2019-01-18T13:24:50.281Z,54.30
2019-01-18T13:27:26.527Z,54.40
2019-01-18T13:30:14.342Z,54.90
2019-01-18T13:33:11.204Z,54.50
2019-01-18T13:35:52.886Z,54.30
2019-01-18T13:38:32.037Z,54.50
2019-01-18T13:41:09.589Z,53.70
2019-01-18T13:43:42.589Z,53.40
2019-01-18T13:46:20.543Z,53.20
2019-01-18T13:48:58.130Z,53.70
2019-01-18T13:51:50.760Z,53.70
2019-01-18T13:54:28.719Z,53.70
2019-01-18T13:57:12.245Z,54.90
2019-01-18T14:03:30.895Z,56.40
2019-01-18T14:06:18.657Z,57.40
2019-01-18T14:09:03.646Z,59.20
2019-01-18T14:12:10.807Z,58.70
2019-01-18T14:17:59.721Z,58.50
2019-01-18T14:21:20.955Z,58.40
2019-01-18T14:23:57.430Z,58.10
2019-01-18T14:27:22.626Z,58.80
2019-01-18T14:29:48.407Z,58.30
2019-01-18T14:32:20.964Z,59.10
2019-01-18T14:34:57.455Z,59.20
2019-01-18T14:38:04.464Z,62.40
2019-01-18T14:41:17.182Z,62.30
2019-01-18T14:46:56.820Z,63.60
2019-01-18T14:49:32.543Z,60.70
2019-01-18T14:52:47.481Z,61.90
2019-01-18T14:55:41.942Z,61.60
2019-01-18T14:59:17.502Z,62.60
2019-01-18T15:01:55.728Z,63.00
2019-01-18T15:04:32.876Z,62.00
2019-01-18T15:07:57.595Z,63.30
2019-01-18T15:10:22.373Z,63.00
2019-01-18T15:13:15.031Z,63.80
2019-01-18T15:16:01.185Z,64.50
2019-01-18T15:18:35.321Z,65.20
2019-01-18T15:21:35.287Z,67.70
2019-01-18T15:24:11.010Z,69.70
2019-01-18T15:26:47.576Z,68.20
2019-01-18T15:29:23.379Z,69.30
2019-01-18T15:32:00.516Z,69.50
2019-01-18T15:34:53.737Z,70.40
2019-01-18T15:37:33.353Z,72.00
2019-01-18T15:40:22.338Z,72.90
2019-01-18T15:42:59.854Z,71.90
2019-01-18T15:48:30.850Z,75.40
2019-01-18T15:51:00.777Z,72.60
2019-01-18T15:53:30.838Z,76.10
2019-01-18T15:56:00.759Z,73.00
2019-01-18T15:58:31.616Z,73.00
2019-01-18T16:01:01.735Z,71.60
2019-01-18T16:03:30.984Z,72.90
2019-01-18T16:06:08.813Z,71.50
2019-01-18T16:08:50.577Z,71.50
2019-01-18T16:11:21.559Z,70.90
2019-01-18T16:13:50.349Z,71.30
2019-01-18T16:16:23.670Z,72.00
2019-01-18T16:18:52.966Z,71.20
2019-01-18T16:21:22.267Z,71.50
2019-01-18T16:23:51.206Z,71.40
2019-01-18T16:26:23.111Z,71.70
2019-01-18T16:28:52.006Z,71.50
2019-01-18T16:31:21.796Z,71.90
2019-01-18T16:33:51.547Z,72.30
2019-01-18T16:36:21.908Z,71.60
2019-01-18T16:38:52.186Z,70.90
2019-01-18T16:41:22.149Z,71.50
2019-01-18T16:43:52.219Z,72.10
2019-01-18T16:46:21.507Z,71.70
2019-01-18T16:48:50.304Z,70.80
2019-01-18T16:51:19.161Z,70.50
2019-01-18T16:53:48.287Z,71.20
2019-01-18T16:56:17.035Z,71.40
2019-01-18T16:58:45.904Z,71.00
2019-01-18T17:01:14.630Z,70.70
2019-01-18T17:03:43.439Z,69.90
2019-01-18T17:06:12.276Z,70.40
2019-01-18T17:08:41.208Z,70.30
2019-01-18T17:11:10.289Z,70.10
2019-01-18T17:13:39.675Z,70.50
2019-01-18T17:16:08.734Z,70.20
2019-01-18T17:18:37.758Z,69.90
2019-01-18T17:21:06.574Z,69.60
2019-01-18T17:23:35.254Z,70.00
2019-01-18T17:26:04.764Z,69.60
2019-01-18T17:28:33.504Z,69.30
2019-01-18T17:31:02.335Z,69.50
2019-01-18T17:33:36.713Z,70.00
2019-01-18T17:36:16.630Z,69.50
2019-01-18T17:38:55.758Z,69.40
2019-01-18T17:41:49.738Z,70.00
2019-01-18T17:44:27.938Z,69.60
2019-01-18T17:47:06.450Z,69.80
2019-01-18T17:49:53.538Z,70.00
2019-01-18T17:52:50.655Z,70.60
2019-01-18T17:55:29.232Z,70.80
2019-01-18T17:58:04.516Z,71.70
2019-01-18T18:01:02.461Z,72.00
2019-01-18T18:03:36.710Z,71.90
2019-01-18T18:06:09.779Z,71.90
2019-01-18T18:08:41.717Z,71.00
2019-01-18T18:11:29.562Z,71.20
2019-01-18T18:14:26.601Z,70.70
2019-01-18T18:17:04.768Z,70.80
2019-01-18T18:19:45.409Z,71.50
2019-01-18T18:22:32.049Z,70.90
2019-01-18T18:25:31.910Z,70.80
2019-01-18T18:28:17.797Z,71.30
2019-01-18T18:31:05.635Z,71.50
2019-01-18T18:34:02.671Z,71.10
2019-01-18T18:36:44.484Z,70.80
2019-01-18T18:40:03.193Z,70.70
2019-01-18T18:42:41.698Z,71.10
2019-01-18T18:45:50.629Z,71.20
2019-01-18T18:48:42.775Z,71.20
2019-01-18T18:51:37.411Z,71.30
2019-01-18T18:54:43.499Z,71.40
2019-01-18T18:57:35.493Z,72.80
2019-01-18T19:00:26.429Z,72.50
2019-01-18T19:03:32.124Z,73.50
2019-01-18T19:06:38.040Z,73.90
2019-01-18T19:09:48.685Z,74.40
2019-01-18T19:12:58.696Z,74.70
2019-01-18T19:15:59.979Z,74.10
2019-01-18T19:19:01.162Z,74.50
2019-01-18T19:22:08.566Z,74.90
2019-01-18T19:25:14.681Z,76.20
2019-01-18T19:27:53.341Z,75.20
2019-01-18T19:30:35.386Z,75.40
2019-01-18T19:33:07.955Z,75.50
2019-01-18T19:36:01.641Z,75.70
2019-01-18T19:38:52.525Z,75.70
2019-01-18T19:41:40.078Z,76.10
2019-01-18T19:44:34.023Z,76.80
2019-01-18T19:47:14.366Z,76.80
2019-01-18T19:49:56.344Z,77.60
2019-01-18T19:52:30.341Z,78.50
2019-01-18T19:55:03.655Z,78.70
2019-01-18T19:57:47.502Z,79.20
2019-01-18T20:00:35.612Z,79.30
2019-01-18T20:03:28.711Z,79.40
2019-01-18T20:06:03.411Z,79.90
2019-01-18T20:08:53.606Z,80.10
2019-01-18T20:11:44.606Z,80.00
2019-01-18T20:14:24.696Z,81.30
2019-01-18T20:17:07.904Z,81.00
2019-01-18T20:19:42.199Z,80.90
2019-01-18T20:22:38.484Z,81.20
2019-01-18T20:25:32.377Z,81.50
2019-01-18T20:28:07.625Z,81.60
2019-01-18T20:30:43.381Z,82.40
2019-01-18T20:33:59.267Z,82.70
2019-01-18T20:36:43.617Z,82.40
2019-01-18T20:39:25.874Z,82.70
2019-01-18T20:41:59.557Z,83.10
2019-01-18T20:44:36.156Z,83.50
2019-01-18T20:47:22.582Z,83.70
2019-01-18T20:49:58.824Z,84.00
2019-01-18T20:52:45.341Z,84.70
2019-01-18T20:55:36.326Z,85.40
2019-01-18T20:58:25.865Z,85.20
2019-01-18T21:01:13.648Z,84.60
2019-01-18T21:03:49.867Z,85.20
2019-01-18T21:06:43.484Z,85.40
2019-01-18T21:09:30.097Z,85.60
2019-01-18T21:12:20.593Z,86.30
2019-01-18T21:15:08.346Z,86.50
2019-01-18T21:17:45.545Z,86.80
2019-01-18T21:20:28.740Z,87.40
2019-01-18T21:23:15.287Z,87.60
2019-01-18T21:25:59.764Z,87.70
2019-01-18T21:28:33.655Z,88.30
2019-01-18T21:31:15.598Z,88.90
2019-01-18T21:34:06.280Z,88.60
2019-01-18T21:36:39.795Z,89.00
2019-01-18T21:39:27.999Z,87.90
2019-01-18T21:42:11.374Z,87.20
2019-01-18T21:45:02.213Z,86.50
2019-01-18T21:47:39.893Z,85.30
2019-01-18T21:50:16.165Z,84.60
2019-01-18T21:53:01.365Z,83.60
2019-01-18T21:55:47.675Z,83.00
2019-01-18T21:58:22.626Z,82.20
2019-01-18T22:01:16.788Z,81.20
2019-01-18T22:03:52.037Z,81.10
2019-01-18T22:06:25.166Z,81.60
2019-01-18T22:09:08.811Z,81.90
2019-01-18T22:11:43.747Z,82.30
2019-01-18T22:14:25.225Z,83.00
2019-01-18T22:17:09.571Z,84.10
2019-01-18T22:19:47.789Z,84.10
2019-01-18T22:22:38.729Z,84.50
2019-01-18T22:25:26.602Z,84.80
2019-01-18T22:28:01.344Z,85.10
2019-01-18T22:30:49.334Z,85.30
2019-01-18T22:33:37.287Z,85.40
2019-01-18T22:36:25.393Z,85.90
2019-01-18T22:39:17.433Z,87.20
2019-01-18T22:42:02.802Z,86.50
2019-01-18T22:45:06.210Z,86.40
2019-01-18T22:48:06.767Z,86.70
2019-01-18T22:50:39.039Z,87.00
2019-01-18T22:53:22.737Z,87.10
2019-01-18T22:55:54.078Z,87.20
2019-01-18T22:58:42.122Z,87.50
2019-01-18T23:01:23.337Z,87.70
2019-01-18T23:03:55.912Z,88.50
2019-01-18T23:06:42.887Z,89.20
2019-01-18T23:09:15.682Z,89.80
2019-01-18T23:11:50.297Z,90.20
2019-01-18T23:14:37.997Z,90.50
2019-01-18T23:17:27.775Z,90.00
2019-01-18T23:20:34.056Z,90.40
2019-01-18T23:23:14.949Z,90.30
2019-01-18T23:26:05.428Z,90.40
2019-01-18T23:29:02.373Z,90.30
2019-01-18T23:31:59.388Z,90.20
2019-01-18T23:34:33.466Z,90.40
2019-01-18T23:37:14.500Z,90.00
2019-01-18T23:39:58.070Z,90.00
2019-01-18T23:42:41.510Z,90.30
2019-01-18T23:45:42.873Z,90.40
2019-01-18T23:48:36.865Z,90.70
2019-01-18T23:51:23.582Z,90.90
2019-01-18T23:54:27.930Z,91.10
2019-01-18T23:57:15.002Z,91.40
